createdAt,value
2023-03-10T00:01:19.282Z,92141.78
2023-03-10T00:03:46.396Z,92100.88
2023-03-10T00:06:15.728Z,92109.88
2023-03-10T00:08:42.791Z,92125.91
2023-03-10T00:11:09.607Z,92110.88
2023-03-10T00:13:36.627Z,92124.13
2023-03-10T00:16:03.233Z,92072.22
2023-03-10T00:18:50.144Z,92112.28
2023-03-10T00:21:17.749Z,92112.09
2023-03-10T00:23:44.600Z,92106.50
2023-03-10T00:26:16.341Z,92073.91
2023-03-10T00:28:42.909Z,92087.09
2023-03-10T00:31:12.702Z,92081.91
2023-03-10T00:33:39.457Z,92076.53
2023-03-10T00:36:08.140Z,92083.44
2023-03-10T00:38:36.222Z,92081.97
2023-03-10T00:41:17.690Z,92061.84
2023-03-10T00:43:44.972Z,92056.66
2023-03-10T00:46:11.856Z,92064.50
2023-03-10T00:48:38.726Z,92053.78
2023-03-10T00:51:06.050Z,92041.66
2023-03-10T00:53:35.300Z,92039.06
2023-03-10T00:56:12.586Z,92036.16
2023-03-10T00:58:39.247Z,92029.59
2023-03-10T01:01:15.617Z,92007.81
2023-03-10T01:03:42.094Z,92032.47
2023-03-10T01:06:09.947Z,92011.41
2023-03-10T01:08:36.390Z,92003.00
2023-03-10T01:11:02.965Z,91994.31
2023-03-10T01:13:30.557Z,92005.00
2023-03-10T01:15:57.026Z,91978.44
2023-03-10T01:18:23.957Z,92000.31
2023-03-10T01:20:50.541Z,91968.16
2023-03-10T01:23:20.627Z,91962.22
2023-03-10T01:25:47.378Z,91967.69
2023-03-10T01:28:13.939Z,91978.38
2023-03-10T01:30:41.652Z,91973.72
2023-03-10T01:33:08.859Z,91973.03
2023-03-10T01:35:35.801Z,91940.25
2023-03-10T01:38:02.319Z,91949.00
2023-03-10T01:40:29.100Z,91934.88
2023-03-10T01:43:20.577Z,91959.50
2023-03-10T01:45:46.908Z,91958.75
2023-03-10T01:48:15.644Z,91949.81
2023-03-10T01:50:45.447Z,91950.66
2023-03-10T01:53:14.426Z,91942.53
2023-03-10T01:55:46.641Z,91936.16
2023-03-10T01:58:15.810Z,91932.38
2023-03-10T02:00:43.802Z,91892.53
2023-03-10T02:03:18.100Z,91926.22
2023-03-10T02:05:49.916Z,91899.22
2023-03-10T02:08:18.083Z,91923.44
2023-03-10T02:10:44.936Z,91878.75
2023-03-10T02:13:21.748Z,91901.16
2023-03-10T02:15:49.341Z,91916.56
2023-03-10T02:18:17.466Z,91893.22
2023-03-10T02:20:46.718Z,91907.50
2023-03-10T02:23:20.227Z,91905.91
2023-03-10T02:25:53.731Z,91885.72
2023-03-10T02:28:20.164Z,91842.22
2023-03-10T02:30:49.563Z,91914.72
2023-03-10T02:33:30.212Z,91919.06
2023-03-10T02:36:15.003Z,91909.97
2023-03-10T02:38:41.793Z,91954.44
2023-03-10T02:41:42.999Z,91976.19
2023-03-10T02:44:14.801Z,91967.59
2023-03-10T02:46:41.249Z,91963.56
2023-03-10T02:49:10.663Z,91974.03
2023-03-10T02:51:42.608Z,91940.09
2023-03-10T02:54:10.397Z,91977.13
2023-03-10T02:56:38.444Z,91992.72
2023-03-10T02:59:08.932Z,91961.44
2023-03-10T03:01:35.465Z,91958.22
2023-03-10T03:04:02.160Z,91950.03
2023-03-10T03:06:29.493Z,91972.78
2023-03-10T03:08:56.397Z,91976.38
2023-03-10T03:11:22.871Z,91970.16
2023-03-10T03:13:49.289Z,91942.94
2023-03-10T03:16:15.720Z,91943.31
2023-03-10T03:18:42.106Z,91958.56
2023-03-10T03:21:11.853Z,91954.34
2023-03-10T03:23:38.859Z,91972.44
2023-03-10T03:26:14.183Z,91950.16
2023-03-10T03:28:40.585Z,91948.56
2023-03-10T03:31:07.000Z,91957.81
2023-03-10T03:33:34.204Z,91941.47
2023-03-10T03:36:00.698Z,91940.88
2023-03-10T03:38:27.162Z,91928.91
2023-03-10T03:40:53.593Z,91936.09
2023-03-10T03:43:20.009Z,91938.03
2023-03-10T03:45:46.442Z,91933.66
2023-03-10T03:48:13.908Z,91909.03
2023-03-10T03:50:40.373Z,91924.25
2023-03-10T03:53:06.777Z,91922.56
2023-03-10T03:55:33.163Z,91941.75
2023-03-10T03:57:59.686Z,91957.94
2023-03-10T04:00:26.261Z,91936.56
2023-03-10T04:02:53.007Z,91972.25
2023-03-10T04:05:19.494Z,91940.13
2023-03-10T04:07:48.177Z,91952.66
2023-03-10T04:10:18.176Z,91973.88
2023-03-10T04:12:44.603Z,91930.97
2023-03-10T04:15:11.514Z,91965.25
2023-03-10T04:17:46.143Z,91978.41
2023-03-10T04:20:15.358Z,91955.06
2023-03-10T04:22:42.263Z,91979.94
2023-03-10T04:25:09.578Z,91984.72
2023-03-10T04:27:36.403Z,91970.06
2023-03-10T04:30:04.319Z,91995.84
2023-03-10T04:32:32.312Z,91981.00
2023-03-10T04:34:58.775Z,91958.09
2023-03-10T04:37:26.643Z,91993.56
2023-03-10T04:39:54.128Z,91999.22
2023-03-10T04:42:21.036Z,92002.69
2023-03-10T04:44:47.429Z,92006.22
2023-03-10T04:47:13.851Z,92004.63
2023-03-10T04:49:40.463Z,91975.56
2023-03-10T04:52:07.067Z,92000.66
2023-03-10T04:54:33.576Z,91992.03
2023-03-10T04:56:59.995Z,91990.56
2023-03-10T04:59:26.553Z,91994.41
2023-03-10T05:02:00.338Z,91991.97
2023-03-10T05:04:26.851Z,91992.84
2023-03-10T05:06:53.507Z,91992.84
2023-03-10T05:09:19.963Z,91972.28
2023-03-10T05:11:46.497Z,91987.38
2023-03-10T05:14:14.051Z,91982.78
2023-03-10T05:16:40.441Z,91953.06
2023-03-10T05:19:07.046Z,91958.16
2023-03-10T05:21:33.911Z,91904.25
2023-03-10T05:24:00.949Z,91899.72
2023-03-10T05:26:27.714Z,91913.75
2023-03-10T05:28:54.203Z,91904.63
2023-03-10T05:31:26.499Z,91902.06
2023-03-10T05:33:54.455Z,91903.88
2023-03-10T05:36:21.367Z,91899.13
2023-03-10T05:38:47.835Z,91889.88
2023-03-10T05:41:28.197Z,91883.06
2023-03-10T05:43:55.383Z,91861.97
2023-03-10T05:46:21.804Z,91864.06
2023-03-10T05:48:48.255Z,91823.06
2023-03-10T05:51:17.874Z,91843.19
2023-03-10T05:53:44.697Z,91827.97
2023-03-10T05:56:17.117Z,91840.75
2023-03-10T05:58:44.411Z,91834.09
2023-03-10T06:01:10.921Z,91830.47
2023-03-10T06:03:38.108Z,91806.28
2023-03-10T06:06:06.770Z,91838.50
2023-03-10T06:08:33.972Z,91828.66
2023-03-10T06:11:00.475Z,91810.81
2023-03-10T06:13:27.236Z,91806.69
2023-03-10T06:15:56.644Z,91799.28
2023-03-10T06:18:24.673Z,91819.16
2023-03-10T06:20:53.514Z,91823.31
2023-03-10T06:23:20.751Z,91815.75
2023-03-10T06:26:09.459Z,91824.78
2023-03-10T06:28:40.350Z,91809.44
2023-03-10T06:31:12.746Z,91817.13
2023-03-10T06:33:39.352Z,91801.56
2023-03-10T06:36:06.341Z,91790.78
2023-03-10T06:38:32.771Z,91790.66
2023-03-10T06:40:59.217Z,91812.66
2023-03-10T06:43:25.723Z,91790.97
2023-03-10T06:45:52.236Z,91822.31
2023-03-10T06:48:23.775Z,91812.91
2023-03-10T06:50:50.482Z,91785.19
2023-03-10T06:53:19.472Z,91771.59
2023-03-10T06:56:00.641Z,91777.09
2023-03-10T06:58:27.545Z,91778.50
2023-03-10T07:00:54.203Z,91783.22
2023-03-10T07:03:20.614Z,91778.84
2023-03-10T07:05:49.181Z,91778.28
2023-03-10T07:08:24.966Z,91785.53
2023-03-10T07:10:51.906Z,91801.31
2023-03-10T07:13:19.236Z,91778.88
2023-03-10T07:15:46.413Z,91793.06
2023-03-10T07:18:13.547Z,91785.75
2023-03-10T07:20:42.000Z,91789.03
2023-03-10T07:23:08.484Z,91747.16
2023-03-10T07:25:36.159Z,91776.06
2023-03-10T07:28:03.530Z,91779.66
2023-03-10T07:30:30.272Z,91755.97
2023-03-10T07:33:08.204Z,91761.16
2023-03-10T07:35:38.531Z,91750.56
2023-03-10T07:38:04.988Z,91765.88
2023-03-10T07:40:31.493Z,91746.72
2023-03-10T07:42:58.188Z,91729.91
2023-03-10T07:45:25.751Z,91716.03
2023-03-10T07:47:54.160Z,91738.53
2023-03-10T07:50:21.649Z,91760.69
2023-03-10T07:52:49.487Z,91738.47
2023-03-10T07:55:16.359Z,91722.06
2023-03-10T07:57:42.905Z,91731.13
2023-03-10T08:00:10.341Z,91731.13
2023-03-10T08:02:37.360Z,91772.03
2023-03-10T08:05:04.098Z,91772.66
2023-03-10T08:07:31.891Z,91752.97
2023-03-10T08:09:58.486Z,91758.03
2023-03-10T08:12:25.468Z,91779.59
2023-03-10T08:14:52.447Z,91784.38
2023-03-10T08:17:19.790Z,91790.66
2023-03-10T08:19:46.241Z,91816.13
2023-03-10T08:22:12.785Z,91750.63
2023-03-10T08:24:39.416Z,91834.19
2023-03-10T08:27:06.024Z,91858.31
2023-03-10T08:29:32.621Z,91841.78
2023-03-10T08:31:59.202Z,91845.94
2023-03-10T08:34:25.633Z,91826.00
2023-03-10T08:36:52.293Z,91866.78
2023-03-10T08:39:18.924Z,91843.22
2023-03-10T08:41:49.099Z,91832.66
2023-03-10T08:44:18.317Z,91887.72
2023-03-10T08:46:47.513Z,91891.81
2023-03-10T08:49:15.726Z,91900.44
2023-03-10T08:51:42.755Z,91899.03
2023-03-10T08:54:12.077Z,91926.56
2023-03-10T08:56:38.814Z,91908.31
2023-03-10T08:59:05.940Z,91931.41
2023-03-10T09:01:35.462Z,91956.47
2023-03-10T09:04:03.368Z,91947.91
2023-03-10T09:06:30.473Z,91978.19
2023-03-10T09:08:57.425Z,91991.41
2023-03-10T09:11:37.049Z,91957.88
2023-03-10T09:14:06.492Z,91982.50
2023-03-10T09:16:34.016Z,91994.16
2023-03-10T09:19:01.264Z,91992.19
2023-03-10T09:21:32.782Z,92008.75
2023-03-10T09:24:00.856Z,92034.81
2023-03-10T09:26:27.317Z,92059.13
2023-03-10T09:28:56.880Z,92048.50
2023-03-10T09:31:31.134Z,92068.53
2023-03-10T09:33:58.784Z,92030.03
2023-03-10T09:36:25.799Z,92034.06
2023-03-10T09:38:52.370Z,91982.66
2023-03-10T09:41:38.689Z,92001.53
2023-03-10T09:44:17.194Z,92008.69
2023-03-10T09:47:13.244Z,92003.34
2023-03-10T09:50:00.354Z,91972.25
2023-03-10T09:53:03.283Z,91996.41
2023-03-10T09:55:47.579Z,91991.66
2023-03-10T09:58:40.945Z,91961.53
2023-03-10T10:01:17.189Z,91931.59
2023-03-10T10:03:54.050Z,91943.13
2023-03-10T10:06:43.490Z,91960.31
2023-03-10T10:09:22.520Z,91961.03
2023-03-10T10:11:48.965Z,91967.09
2023-03-10T10:14:29.609Z,91973.00
2023-03-10T10:17:08.406Z,91917.41
2023-03-10T10:19:37.474Z,91961.44
2023-03-10T10:22:26.730Z,91960.09
2023-03-10T10:25:11.278Z,91952.50
2023-03-10T10:27:39.605Z,91958.41
2023-03-10T10:30:44.650Z,91955.66
2023-03-10T10:33:13.682Z,91943.53
2023-03-10T10:36:01.689Z,91933.19
2023-03-10T10:38:30.706Z,91918.19
2023-03-10T10:41:07.354Z,91952.56
2023-03-10T10:43:45.915Z,91935.41
2023-03-10T10:46:15.203Z,91926.09
2023-03-10T10:48:47.300Z,91924.19
2023-03-10T10:51:29.513Z,91951.50
2023-03-10T10:54:02.229Z,91915.22
2023-03-10T10:56:29.366Z,91926.97
2023-03-10T10:59:18.097Z,91934.28
2023-03-10T11:02:00.160Z,91951.91
2023-03-10T11:04:33.877Z,91943.25
2023-03-10T11:07:24.373Z,91940.03
2023-03-10T11:09:51.278Z,91905.06
2023-03-10T11:12:44.303Z,91929.69
2023-03-10T11:15:20.758Z,91925.75
2023-03-10T11:17:50.360Z,91932.09
2023-03-10T11:20:30.849Z,91896.66
2023-03-10T11:23:21.714Z,91926.84
2023-03-10T11:26:16.992Z,91928.88
2023-03-10T11:28:53.216Z,91934.91
2023-03-10T11:31:37.876Z,91901.69
2023-03-10T11:34:18.554Z,91935.88
2023-03-10T11:36:56.008Z,91922.91
2023-03-10T11:39:37.603Z,91948.16
2023-03-10T11:42:34.434Z,91940.63
2023-03-10T11:45:15.889Z,91924.16
2023-03-10T11:48:07.908Z,91951.19
2023-03-10T11:50:53.536Z,91955.53
2023-03-10T11:53:26.089Z,91950.06
2023-03-10T11:55:54.069Z,91961.38
2023-03-10T11:58:49.929Z,91946.00
2023-03-10T12:01:25.198Z,91918.53
2023-03-10T12:04:05.236Z,91963.28
2023-03-10T12:06:46.765Z,91927.91
2023-03-10T12:09:31.381Z,91949.50
2023-03-10T12:11:58.012Z,91933.00
2023-03-10T12:14:25.456Z,91958.53
2023-03-10T12:16:53.366Z,91924.13
2023-03-10T12:19:20.167Z,91899.44
2023-03-10T12:22:21.400Z,91948.25
2023-03-10T12:24:55.047Z,91929.25
2023-03-10T12:27:21.574Z,91918.00
2023-03-10T12:29:48.696Z,91894.63
2023-03-10T12:32:47.938Z,91912.13
2023-03-10T12:35:20.589Z,91909.75
2023-03-10T12:37:48.298Z,91901.94
2023-03-10T12:41:05.823Z,91915.22
2023-03-10T12:43:51.563Z,91918.09
2023-03-10T12:46:45.757Z,91916.72
2023-03-10T12:49:25.581Z,91930.97
2023-03-10T12:52:19.090Z,91925.97
2023-03-10T12:55:25.964Z,91941.91
2023-03-10T12:58:36.736Z,91931.88
2023-03-10T13:01:07.580Z,91946.44
2023-03-10T13:03:55.687Z,91952.06
2023-03-10T13:06:55.167Z,91941.56
2023-03-10T13:09:39.032Z,91947.22
2023-03-10T13:12:28.335Z,91952.50
2023-03-10T13:15:27.693Z,91953.53
2023-03-10T13:18:23.285Z,91948.88
2023-03-10T13:20:50.096Z,91960.56
2023-03-10T13:23:36.679Z,91933.91
2023-03-10T13:26:07.266Z,91969.13
2023-03-10T13:28:35.304Z,91931.31
2023-03-10T13:31:16.929Z,91967.59
2023-03-10T13:33:52.707Z,91957.41
2023-03-10T13:36:40.092Z,91964.16
2023-03-10T13:39:34.615Z,91976.38
2023-03-10T13:42:03.133Z,91957.75
2023-03-10T13:44:42.228Z,91984.66
2023-03-10T13:47:16.040Z,91978.00
2023-03-10T13:49:47.969Z,91981.25
2023-03-10T13:52:23.381Z,91969.97
2023-03-10T13:54:50.428Z,91957.38
2023-03-10T13:57:43.622Z,91982.69
2023-03-10T14:00:17.951Z,91979.41
2023-03-10T14:02:49.787Z,91960.44
2023-03-10T14:05:42.323Z,91966.19
2023-03-10T14:08:32.770Z,92007.53
2023-03-10T14:11:37.888Z,92009.16
2023-03-10T14:14:07.827Z,91994.44
2023-03-10T14:16:56.357Z,92019.00
2023-03-10T14:19:41.103Z,92032.06
2023-03-10T14:22:43.423Z,92015.34
2023-03-10T14:25:18.483Z,92023.00
2023-03-10T14:30:43.842Z,92025.31
2023-03-10T14:33:13.360Z,91992.47
2023-03-10T14:35:40.139Z,92007.16
2023-03-10T14:38:08.084Z,92034.66
2023-03-10T14:40:48.953Z,92022.56
2023-03-10T14:43:50.970Z,92009.53
2023-03-10T14:46:17.934Z,91992.56
2023-03-10T14:48:45.980Z,91978.31
2023-03-10T14:51:25.639Z,92015.50
2023-03-10T14:53:59.218Z,91982.63
2023-03-10T14:56:25.624Z,92000.84
2023-03-10T14:58:54.452Z,92003.06
2023-03-10T15:01:21.581Z,92012.03
2023-03-10T15:03:49.221Z,91988.09
2023-03-10T15:06:19.182Z,92003.31
2023-03-10T15:08:45.610Z,91982.91
2023-03-10T15:11:14.693Z,91985.34
2023-03-10T15:13:42.745Z,92024.69
2023-03-10T15:16:12.289Z,92030.59
2023-03-10T15:18:38.785Z,92018.19
2023-03-10T15:21:05.374Z,92039.53
2023-03-10T15:23:31.808Z,92053.09
2023-03-10T15:25:58.958Z,92033.66
2023-03-10T15:28:31.598Z,92024.44
2023-03-10T15:30:58.116Z,92041.81
2023-03-10T15:33:24.561Z,92015.78
2023-03-10T15:35:53.263Z,92037.25
2023-03-10T15:38:19.729Z,92027.25
2023-03-10T15:40:46.628Z,92053.53
2023-03-10T15:43:13.839Z,92044.44
2023-03-10T15:45:42.568Z,92039.16
2023-03-10T15:48:10.281Z,92043.81
2023-03-10T15:50:41.948Z,92082.91
2023-03-10T15:53:08.859Z,92086.06
2023-03-10T15:55:41.371Z,92120.97
2023-03-10T15:58:09.182Z,92100.16
2023-03-10T16:00:35.688Z,92140.72
2023-03-10T16:03:02.728Z,92147.28
2023-03-10T16:05:29.615Z,92139.97
2023-03-10T16:07:56.038Z,92122.34
2023-03-10T16:10:22.420Z,92144.97
2023-03-10T16:12:48.811Z,92136.19
2023-03-10T16:15:18.069Z,92138.94
2023-03-10T16:17:45.043Z,92139.75
2023-03-10T16:20:16.889Z,92138.53
2023-03-10T16:22:43.370Z,92163.41
2023-03-10T16:25:19.217Z,92202.56
2023-03-10T16:27:55.893Z,92173.91
2023-03-10T16:30:24.649Z,92182.63
2023-03-10T16:32:52.106Z,92174.75
2023-03-10T16:35:18.688Z,92176.31
2023-03-10T16:37:45.121Z,92202.19
2023-03-10T16:40:12.161Z,92137.75
2023-03-10T16:42:45.405Z,92163.09
2023-03-10T16:45:12.450Z,92160.94
2023-03-10T16:47:39.015Z,92151.88
2023-03-10T16:50:18.352Z,92163.06
2023-03-10T16:52:44.752Z,92167.53
2023-03-10T16:55:49.152Z,92163.03
2023-03-10T16:58:15.550Z,92146.81
2023-03-10T17:00:45.146Z,92149.88
2023-03-10T17:03:11.543Z,92121.31
2023-03-10T17:05:39.141Z,92160.69
2023-03-10T17:08:06.047Z,92183.75
2023-03-10T17:10:33.367Z,92158.75
2023-03-10T17:12:59.769Z,92168.19
2023-03-10T17:15:26.133Z,92156.31
2023-03-10T17:17:52.849Z,92157.91
2023-03-10T17:20:25.706Z,92152.00
2023-03-10T17:23:04.765Z,92204.47
2023-03-10T17:26:01.202Z,92194.09
2023-03-10T17:28:27.705Z,92208.38
2023-03-10T17:30:54.075Z,92148.56
2023-03-10T17:33:25.474Z,92134.44
2023-03-10T17:35:51.858Z,92148.06
2023-03-10T17:38:22.261Z,92164.81
2023-03-10T17:40:50.657Z,92145.47
2023-03-10T17:43:32.894Z,92173.28
2023-03-10T17:46:03.251Z,92163.72
2023-03-10T17:48:36.916Z,92183.16
2023-03-10T17:51:03.885Z,92184.41
2023-03-10T17:53:31.046Z,92160.94
2023-03-10T17:55:57.665Z,92179.06
2023-03-10T17:58:24.151Z,92184.50
2023-03-10T18:00:50.502Z,92211.56
2023-03-10T18:03:22.157Z,92225.66
2023-03-10T18:05:48.720Z,92247.22
2023-03-10T18:08:15.211Z,92248.53
2023-03-10T18:10:42.032Z,92203.19
2023-03-10T18:13:11.071Z,92221.09
2023-03-10T18:15:51.077Z,92241.38
2023-03-10T18:18:17.495Z,92251.69
2023-03-10T18:20:43.932Z,92231.41
2023-03-10T18:23:10.342Z,92233.00
2023-03-10T18:25:43.413Z,92245.53
2023-03-10T18:28:15.125Z,92218.31
2023-03-10T18:30:41.912Z,92219.50
2023-03-10T18:33:08.645Z,92236.97
2023-03-10T18:35:38.557Z,92270.00
2023-03-10T18:38:05.529Z,92258.06
2023-03-10T18:40:32.297Z,92259.25
2023-03-10T18:42:58.762Z,92262.44
2023-03-10T18:45:25.187Z,92246.53
2023-03-10T18:47:51.627Z,92274.56
2023-03-10T18:50:18.121Z,92265.22
2023-03-10T18:52:45.841Z,92273.97
2023-03-10T18:55:13.574Z,92259.66
2023-03-10T18:57:43.878Z,92282.31
2023-03-10T19:00:27.550Z,92246.13
2023-03-10T19:02:54.305Z,92224.66
2023-03-10T19:05:21.261Z,92203.56
2023-03-10T19:07:47.769Z,92253.50
2023-03-10T19:10:16.508Z,92259.25
2023-03-10T19:12:42.971Z,92236.59
2023-03-10T19:15:14.476Z,92230.41
2023-03-10T19:17:41.662Z,92216.69
2023-03-10T19:20:11.658Z,92241.16
2023-03-10T19:22:51.139Z,92239.34
2023-03-10T19:25:18.672Z,92230.13
2023-03-10T19:28:02.618Z,92230.94
2023-03-10T19:30:34.923Z,92250.03
2023-03-10T19:33:14.532Z,92237.75
2023-03-10T19:35:42.122Z,92258.81
2023-03-10T19:38:08.685Z,92268.66
2023-03-10T19:40:35.445Z,92259.56
2023-03-10T19:43:05.918Z,92252.19
2023-03-10T19:45:32.417Z,92257.19
2023-03-10T19:47:58.953Z,92228.50
2023-03-10T19:50:42.599Z,92224.56
2023-03-10T19:53:10.086Z,92228.56
2023-03-10T19:55:43.877Z,92225.22
2023-03-10T19:58:10.379Z,92224.03
2023-03-10T20:00:40.082Z,92244.88
2023-03-10T20:03:10.657Z,92283.44
2023-03-10T20:05:42.676Z,92244.09
2023-03-10T20:08:13.612Z,92249.47
2023-03-10T20:10:41.141Z,92263.78
2023-03-10T20:13:08.529Z,92276.25
2023-03-10T20:15:37.911Z,92251.63
2023-03-10T20:18:05.595Z,92244.06
2023-03-10T20:20:33.588Z,92303.91
2023-03-10T20:23:00.120Z,92252.41
2023-03-10T20:25:31.489Z,92267.53
2023-03-10T20:28:01.983Z,92243.63
2023-03-10T20:30:30.710Z,92245.38
2023-03-10T20:33:02.237Z,92282.25
2023-03-10T20:35:34.954Z,92275.84
2023-03-10T20:38:05.609Z,92276.25
2023-03-10T20:40:33.082Z,92296.13
2023-03-10T20:42:59.743Z,92288.19
2023-03-10T20:45:34.834Z,92308.09
2023-03-10T20:48:01.248Z,92324.78
2023-03-10T20:50:29.293Z,92330.75
2023-03-10T20:52:59.448Z,92323.22
2023-03-10T20:55:28.612Z,92333.16
2023-03-10T20:57:57.268Z,92294.50
2023-03-10T21:00:26.154Z,92346.22
2023-03-10T21:03:03.675Z,92350.19
2023-03-10T21:05:30.146Z,92370.03
2023-03-10T21:07:57.939Z,92388.38
2023-03-10T21:10:26.503Z,92385.22
2023-03-10T21:12:59.064Z,92393.28
2023-03-10T21:15:25.809Z,92408.06
2023-03-10T21:17:52.455Z,92403.84
2023-03-10T21:20:21.918Z,92422.19
2023-03-10T21:22:50.406Z,92385.53
2023-03-10T21:25:20.714Z,92416.59
2023-03-10T21:27:49.585Z,92411.75
2023-03-10T21:30:17.347Z,92451.84
2023-03-10T21:32:44.144Z,92427.19
2023-03-10T21:35:13.778Z,92422.75
2023-03-10T21:37:42.343Z,92442.72
2023-03-10T21:40:10.378Z,92448.59
2023-03-10T21:42:40.361Z,92457.97
2023-03-10T21:45:08.758Z,92451.00
2023-03-10T21:47:35.181Z,92466.56
2023-03-10T21:50:01.950Z,92454.13
2023-03-10T21:52:31.356Z,92487.16
2023-03-10T21:54:57.722Z,92493.06
2023-03-10T21:57:24.350Z,92512.53
2023-03-10T21:59:50.737Z,92490.81
2023-03-10T22:02:40.385Z,92548.75
2023-03-10T22:05:08.483Z,92517.28
2023-03-10T22:07:35.045Z,92543.88
2023-03-10T22:10:09.555Z,92563.16
2023-03-10T22:12:36.000Z,92529.50
2023-03-10T22:15:02.660Z,92543.81
2023-03-10T22:17:29.059Z,92528.78
2023-03-10T22:19:55.513Z,92533.44
2023-03-10T22:22:22.622Z,92550.72
2023-03-10T22:24:57.095Z,92532.34
2023-03-10T22:27:23.525Z,92521.84
2023-03-10T22:29:49.905Z,92510.59
2023-03-10T22:32:16.327Z,92522.88
2023-03-10T22:34:42.701Z,92531.22
2023-03-10T22:37:10.241Z,92545.97
2023-03-10T22:39:38.033Z,92553.47
2023-03-10T22:42:05.231Z,92579.28
2023-03-10T22:44:36.256Z,92541.53
2023-03-10T22:47:03.325Z,92585.66
2023-03-10T22:49:29.799Z,92579.28
2023-03-10T22:51:57.485Z,92544.59
2023-03-10T22:54:24.228Z,92573.03
2023-03-10T22:56:50.725Z,92574.22
2023-03-10T22:59:17.095Z,92539.22
2023-03-10T23:01:46.632Z,92557.22
2023-03-10T23:04:13.903Z,92558.84
2023-03-10T23:06:40.387Z,92592.34
2023-03-10T23:09:09.215Z,92579.16
2023-03-10T23:11:48.894Z,92596.09
2023-03-10T23:14:15.626Z,92578.25
2023-03-10T23:16:42.058Z,92591.56
2023-03-10T23:19:08.792Z,92610.00
2023-03-10T23:21:35.899Z,92608.75
2023-03-10T23:24:02.390Z,92602.88
2023-03-10T23:26:30.066Z,92594.75
2023-03-10T23:28:56.765Z,92597.94
2023-03-10T23:31:23.177Z,92640.91
2023-03-10T23:34:23.730Z,92648.41
2023-03-10T23:36:50.127Z,92640.31
2023-03-10T23:39:16.501Z,92621.34
2023-03-10T23:41:42.929Z,92654.63
2023-03-10T23:44:09.394Z,92618.69
2023-03-10T23:46:35.839Z,92629.38
2023-03-10T23:49:02.225Z,92632.41
2023-03-10T23:51:30.065Z,92626.16
2023-03-10T23:53:56.467Z,92635.41
2023-03-10T23:56:22.868Z,92632.41
2023-03-10T23:58:49.263Z,92638.97
